Time;durP1;ratioP1;P1;durP2;ratioP2;P2;SDS_P1;SDS_P2;PMS_P1;PMS_P2;Temp;Humidity;BMP_temperature;BMP_pressure;BME280_temperature;BME280_humidity;BME280_pressure;Samples;Min_cycle;Max_cycle;Signal;HPM_P1;HPM_P2
2022/07/22 00:01:06;;;;;;;11.52;6.18;;;;;;;15.48;100.00;102102.34;5011912;28;20253;-95
2022/07/22 00:03:32;;;;;;;13.10;6.07;;;;;;;15.47;100.00;102095.34;5012024;28;20026;-94
2022/07/22 00:06:00;;;;;;;10.35;6.38;;;;;;;15.49;100.00;102098.75;5013070;28;20109;-95
2022/07/22 00:08:26;;;;;;;12.30;6.57;;;;;;;15.53;100.00;102100.19;5012011;28;20479;-95
2022/07/22 00:10:51;;;;;;;12.57;6.82;;;;;;;15.48;100.00;102086.44;5011368;28;20099;-96
2022/07/22 00:13:17;;;;;;;11.90;6.85;;;;;;;15.45;100.00;102091.97;5012508;28;20033;-95
2022/07/22 00:15:42;;;;;;;16.75;7.45;;;;;;;15.47;100.00;102094.50;5012066;28;20029;-95
2022/07/22 00:18:14;;;;;;;12.90;7.28;;;;;;;15.46;100.00;102093.66;5011437;28;20030;-96
2022/07/22 00:20:42;;;;;;;15.70;7.60;;;;;;;15.50;100.00;102094.28;5011809;28;20381;-96
2022/07/22 00:23:11;;;;;;;12.45;7.28;;;;;;;15.46;100.00;102090.16;5012922;28;20436;-95
2022/07/22 00:25:40;;;;;;;12.48;7.72;;;;;;;15.47;100.00;102092.69;5013825;28;20550;-95
2022/07/22 00:28:08;;;;;;;16.08;8.15;;;;;;;15.44;100.00;102095.59;5013496;28;20030;-95
2022/07/22 00:30:36;;;;;;;14.90;8.50;;;;;;;15.52;100.00;102092.34;5013321;28;20057;-94
2022/07/22 00:33:08;;;;;;;12.80;7.50;;;;;;;15.45;100.00;102088.47;5012178;28;20030;-96
2022/07/22 00:35:34;;;;;;;15.45;7.72;;;;;;;15.51;100.00;102088.00;5010658;28;20073;-95
2022/07/22 00:38:00;;;;;;;14.25;7.70;;;;;;;15.54;100.00;102091.28;5012948;28;20034;-96
2022/07/22 00:40:28;;;;;;;15.38;7.82;;;;;;;15.48;100.00;102089.09;5014780;28;20037;-95
2022/07/22 00:43:03;;;;;;;12.73;7.55;;;;;;;15.48;100.00;102089.09;5013673;28;20104;-94
2022/07/22 00:45:32;;;;;;;15.88;7.53;;;;;;;15.53;100.00;102096.69;5010613;28;20026;-95
2022/07/22 00:47:58;;;;;;;12.88;7.35;;;;;;;15.49;100.00;102095.25;5011807;28;20443;-95
2022/07/22 00:50:24;;;;;;;15.77;8.07;;;;;;;15.47;100.00;102090.06;5013150;28;20476;-95
2022/07/22 00:52:50;;;;;;;16.75;7.60;;;;;;;15.49;100.00;102081.97;5012592;28;20029;-95
2022/07/22 00:55:19;;;;;;;17.60;8.18;;;;;;;15.47;100.00;102081.25;5012798;28;20049;-95
2022/07/22 00:57:45;;;;;;;15.50;7.50;;;;;;;15.44;100.00;102079.66;5011267;28;20025;-95
2022/07/22 01:00:21;;;;;;;17.63;8.15;;;;;;;15.47;100.00;102074.13;5010137;28;20260;-95
2022/07/22 01:02:47;;;;;;;12.35;7.13;;;;;;;15.42;100.00;102076.28;5012542;28;20084;-96
2022/07/22 01:05:15;;;;;;;15.32;7.50;;;;;;;15.42;100.00;102081.59;5010575;28;20033;-96
2022/07/22 01:07:44;;;;;;;9.63;6.57;;;;;;;15.45;100.00;102077.88;5012972;28;20076;-95
2022/07/22 01:10:13;;;;;;;13.50;6.97;;;;;;;15.48;100.00;102069.69;5010972;28;20045;-96
2022/07/22 01:12:41;;;;;;;15.30;7.18;;;;;;;15.43;100.00;102075.31;5011261;28;20083;-96
2022/07/22 01:15:07;;;;;;;12.77;6.45;;;;;;;15.51;100.00;102080.06;5010289;28;20026;-96
2022/07/22 01:17:42;;;;;;;12.35;7.20;;;;;;;15.43;100.00;102077.97;5010220;28;20471;-96
2022/07/22 01:20:19;;;;;;;13.07;7.13;;;;;;;15.41;100.00;102069.28;5010068;28;20042;-96
2022/07/22 01:22:44;;;;;;;14.05;6.80;;;;;;;15.44;100.00;102069.06;5010375;28;20033;-96
2022/07/22 01:25:13;;;;;;;13.88;6.63;;;;;;;15.46;100.00;102068.94;5010319;28;20455;-96
2022/07/22 01:27:43;;;;;;;14.27;6.60;;;;;;;15.46;100.00;102061.84;5011536;28;20445;-96
2022/07/22 01:30:14;;;;;;;11.80;6.65;;;;;;;15.46;100.00;102067.13;5010057;28;20018;-96
2022/07/22 01:32:39;;;;;;;13.18;6.70;;;;;;;15.47;100.00;102065.34;5010340;28;20502;-96
2022/07/22 01:35:08;;;;;;;14.57;6.50;;;;;;;15.45;100.00;102065.44;5010774;28;20026;-96
2022/07/22 01:37:43;;;;;;;12.98;5.90;;;;;;;15.39;100.00;102073.88;5010571;28;20037;-96
2022/07/22 01:40:09;;;;;;;11.77;6.38;;;;;;;15.32;100.00;102064.69;5011426;28;20031;-96
2022/07/22 01:42:45;;;;;;;;;;;;;;;;;;;;;
2022/07/22 01:45:26;;;;;;;14.70;7.05;;;;;;;15.11;100.00;102066.25;5011343;28;20030;-96
2022/07/22 01:47:52;;;;;;;12.48;6.40;;;;;;;15.14;100.00;102071.31;5010829;28;20136;-96
2022/07/22 01:50:20;;;;;;;13.15;7.25;;;;;;;14.97;100.00;102070.78;5010129;28;20057;-96
2022/07/22 01:52:48;;;;;;;11.13;6.45;;;;;;;14.96;100.00;102069.09;5012349;28;20053;-96
2022/07/22 01:55:17;;;;;;;14.98;7.45;;;;;;;14.94;100.00;102071.00;5010184;28;20018;-96
2022/07/22 01:57:42;;;;;;;12.95;7.50;;;;;;;14.81;100.00;102075.50;5013430;28;20034;-96
2022/07/22 02:00:12;;;;;;;12.00;7.40;;;;;;;14.84;100.00;102077.09;5011017;28;20034;-96
2022/07/22 02:02:40;;;;;;;17.38;8.45;;;;;;;14.73;100.00;102073.38;5009535;28;20054;-96
2022/07/22 02:05:15;;;;;;;13.63;7.60;;;;;;;14.76;100.00;102072.31;5010665;28;20033;-96
2022/07/22 02:07:46;;;;;;;12.85;7.57;;;;;;;14.73;100.00;102075.19;5011670;28;20057;-96
2022/07/22 02:10:15;;;;;;;13.82;7.82;;;;;;;14.74;100.00;102066.28;5010838;28;20068;-96
2022/07/22 02:12:44;;;;;;;15.88;8.10;;;;;;;14.72;100.00;102062.91;5009795;28;20037;-95
2022/07/22 02:15:12;;;;;;;16.17;7.72;;;;;;;14.74;100.00;102067.13;5011002;28;20034;-96
2022/07/22 02:17:40;;;;;;;15.05;8.40;;;;;;;14.75;100.00;102062.66;5008535;28;20153;-96
2022/07/22 02:20:09;;;;;;;13.18;7.65;;;;;;;14.77;100.00;102049.31;5008840;28;20052;-96
2022/07/22 02:22:34;;;;;;;13.20;7.53;;;;;;;14.80;100.00;102065.00;5008301;28;20502;-95
2022/07/22 02:25:00;;;;;;;15.32;8.18;;;;;;;14.81;100.00;102054.31;5009543;28;20018;-95
2022/07/22 02:27:25;;;;;;;12.93;8.10;;;;;;;14.79;100.00;102050.03;5009618;28;20028;-96
2022/07/22 02:29:54;;;;;;;14.95;8.10;;;;;;;14.79;100.00;102056.19;5014099;28;20040;-96
2022/07/22 02:32:26;;;;;;;15.75;8.38;;;;;;;14.74;100.00;102060.97;5012469;28;20468;-96
2022/07/22 02:34:55;;;;;;;16.88;8.50;;;;;;;14.79;100.00;102058.00;5012104;28;20034;-96
2022/07/22 02:37:24;;;;;;;16.40;8.60;;;;;;;14.79;100.00;102056.19;5013685;28;20718;-96
2022/07/22 02:39:49;;;;;;;18.45;9.13;;;;;;;14.83;100.00;102051.53;5012796;28;20029;-96
2022/07/22 02:42:18;;;;;;;18.40;8.55;;;;;;;14.85;100.00;102061.06;5012465;28;20468;-96
2022/07/22 02:44:51;;;;;;;17.17;9.68;;;;;;;14.81;100.00;102046.34;5012262;28;20025;-95
2022/07/22 02:47:17;;;;;;;16.98;8.23;;;;;;;14.82;100.00;102053.34;5013372;28;20045;-95
2022/07/22 02:49:46;;;;;;;14.77;9.18;;;;;;;14.77;100.00;102046.66;5012179;28;20464;-95
2022/07/22 02:52:14;;;;;;;17.10;9.73;;;;;;;14.78;100.00;102048.34;5011058;28;20180;-96
2022/07/22 02:54:43;;;;;;;17.08;9.27;;;;;;;14.82;100.00;102044.56;5013269;28;20026;-95
2022/07/22 02:57:08;;;;;;;20.17;9.95;;;;;;;14.84;100.00;102043.47;5011470;28;20026;-96
2022/07/22 02:59:34;;;;;;;16.45;9.18;;;;;;;14.90;100.00;102039.53;5011275;28;20400;-95
2022/07/22 03:02:03;;;;;;;14.05;8.90;;;;;;;14.87;100.00;102043.25;5012135;28;20030;-95
2022/07/22 03:04:29;;;;;;;20.83;9.50;;;;;;;14.84;100.00;102038.19;5012258;28;20503;-96
2022/07/22 03:07:00;;;;;;;16.05;9.13;;;;;;;14.82;100.00;102034.81;5012036;28;20025;-95
2022/07/22 03:09:29;;;;;;;18.23;9.43;;;;;;;14.74;100.00;102031.84;5010925;28;20034;-96
2022/07/22 03:11:54;;;;;;;14.73;9.20;;;;;;;14.80;100.00;102041.97;5013215;28;20033;-96
2022/07/22 03:14:23;;;;;;;16.50;8.85;;;;;;;14.79;100.00;102035.00;5013516;28;20030;-95
2022/07/22 03:16:57;;;;;;;19.05;10.18;;;;;;;14.77;100.00;102030.75;5011486;28;20585;-95
2022/07/22 03:19:26;;;;;;;13.93;9.00;;;;;;;14.77;100.00;102036.91;5009535;28;20046;-96
2022/07/22 03:21:52;;;;;;;21.65;9.15;;;;;;;14.76;100.00;102032.56;5010286;28;20326;-96
2022/07/22 03:24:20;;;;;;;16.70;9.68;;;;;;;14.69;100.00;102032.16;4993793;28;20030;-95
2022/07/22 03:26:48;;;;;;;13.65;9.20;;;;;;;14.71;100.00;102035.56;5011022;28;20042;-96
2022/07/22 03:29:26;;;;;;;17.13;8.98;;;;;;;14.77;100.00;102031.63;5027739;28;20573;-96
2022/07/22 03:31:57;;;;;;;14.30;9.50;;;;;;;14.76;100.00;102042.31;5030600;28;20047;-96
2022/07/22 03:34:24;;;;;;;17.23;9.23;;;;;;;14.71;100.00;102032.91;5013183;28;20654;-95
2022/07/22 03:36:56;;;;;;;13.80;9.15;;;;;;;14.70;100.00;102030.38;5014251;28;20033;-96
2022/07/22 03:39:21;;;;;;;15.40;9.43;;;;;;;14.69;100.00;102026.88;5029768;28;20444;-95
2022/07/22 03:41:47;;;;;;;15.57;9.68;;;;;;;14.71;100.00;102026.75;5029727;28;20034;-96
2022/07/22 03:44:12;;;;;;;15.60;9.18;;;;;;;14.64;100.00;102030.81;5013296;28;20032;-96
2022/07/22 03:46:38;;;;;;;16.15;9.20;;;;;;;14.65;100.00;102033.34;5030611;28;20022;-96
2022/07/22 03:49:04;;;;;;;16.02;9.45;;;;;;;14.59;100.00;102044.41;5012009;28;20030;-95
2022/07/22 03:51:29;;;;;;;16.48;9.63;;;;;;;14.58;100.00;102036.56;5011367;28;20076;-96
2022/07/22 03:53:58;;;;;;;15.65;9.35;;;;;;;14.63;100.00;102051.16;5012606;28;20112;-95
2022/07/22 03:56:26;;;;;;;14.20;9.60;;;;;;;14.66;100.00;102044.78;5012986;28;20061;-96
2022/07/22 03:58:52;;;;;;;13.32;9.23;;;;;;;14.66;100.00;102037.69;5013005;28;20034;-96
2022/07/22 04:01:21;;;;;;;19.30;10.05;;;;;;;14.69;100.00;102044.56;5010634;28;20376;-95
2022/07/22 04:03:57;;;;;;;19.50;10.02;;;;;;;14.73;100.00;102048.69;5011602;28;20073;-95
2022/07/22 04:06:26;;;;;;;13.65;9.40;;;;;;;14.66;100.00;102044.78;5012411;28;20030;-95
2022/07/22 04:08:55;;;;;;;13.98;9.30;;;;;;;14.70;100.00;102054.22;5010379;28;20041;-95
2022/07/22 04:11:29;;;;;;;15.68;10.13;;;;;;;14.63;100.00;102052.97;5011987;28;20018;-95
2022/07/22 04:13:55;;;;;;;15.10;9.85;;;;;;;14.61;100.00;102065.47;5012456;28;20030;-95
2022/07/22 04:16:23;;;;;;;16.92;9.80;;;;;;;14.68;100.00;102053.47;5011460;28;20022;-95
2022/07/22 04:18:48;;;;;;;19.55;10.65;;;;;;;14.68;100.00;102054.31;5010950;28;20439;-95
2022/07/22 04:21:13;;;;;;;17.42;9.95;;;;;;;14.67;100.00;102055.28;5012343;28;20049;-95
2022/07/22 04:23:39;;;;;;;14.20;9.68;;;;;;;14.74;100.00;102045.94;5011986;28;20061;-96
2022/07/22 04:26:07;;;;;;;18.88;10.10;;;;;;;14.75;100.00;102060.03;5011478;28;20061;-95
2022/07/22 04:28:37;;;;;;;13.88;9.40;;;;;;;14.73;100.00;102051.34;5010646;28;20072;-96
2022/07/22 04:31:05;;;;;;;16.52;10.05;;;;;;;14.76;100.00;102052.91;5011731;28;20026;-95
2022/07/22 04:33:34;;;;;;;18.65;9.45;;;;;;;14.82;100.00;102049.84;5011121;28;20041;-96
2022/07/22 04:36:22;;;;;;;15.60;9.38;;;;;;;14.83;100.00;102041.78;5012401;28;20026;-96
2022/07/22 04:38:51;;;;;;;14.93;10.15;;;;;;;14.89;100.00;102051.94;5010952;28;20033;-95
2022/07/22 04:41:17;;;;;;;14.50;9.48;;;;;;;14.93;100.00;102047.25;5010287;28;20018;-96
2022/07/22 04:43:45;;;;;;;21.52;10.13;;;;;;;14.91;100.00;102050.03;5011662;28;20438;-95
2022/07/22 04:46:10;;;;;;;16.67;9.98;;;;;;;14.90;100.00;102040.38;5010449;28;20079;-95
2022/07/22 04:48:36;;;;;;;17.50;10.07;;;;;;;14.97;100.00;102046.91;5011572;28;20033;-96
2022/07/22 04:51:03;;;;;;;19.27;10.38;;;;;;;14.98;100.00;102045.13;5009304;28;20018;-96
2022/07/22 04:53:28;;;;;;;14.75;10.60;;;;;;;14.99;100.00;102039.69;5010316;28;20029;-96
2022/07/22 04:56:01;;;;;;;24.17;10.55;;;;;;;14.99;100.00;102042.34;5011779;28;20026;-95
2022/07/22 04:58:27;;;;;;;18.48;10.68;;;;;;;14.99;100.00;102036.19;5009979;28;20029;-95
2022/07/22 05:00:55;;;;;;;20.13;11.27;;;;;;;15.01;100.00;102035.13;5010966;28;20037;-96
2022/07/22 05:03:25;;;;;;;19.80;10.93;;;;;;;15.05;100.00;102041.91;5010502;28;20040;-96
2022/07/22 05:05:57;;;;;;;17.92;10.88;;;;;;;15.03;100.00;102043.81;5010483;28;20025;-96
2022/07/22 05:08:22;;;;;;;17.27;11.63;;;;;;;15.00;100.00;102036.09;5011758;28;20033;-96
2022/07/22 05:10:48;;;;;;;17.63;11.60;;;;;;;15.02;100.00;102034.16;5010517;28;20018;-96
2022/07/22 05:13:14;;;;;;;16.90;11.13;;;;;;;15.03;100.00;102030.56;5011532;28;20084;-96
2022/07/22 05:15:43;;;;;;;19.50;11.45;;;;;;;15.07;100.00;102032.97;5010429;28;20022;-96
2022/07/22 05:18:08;;;;;;;18.33;11.90;;;;;;;15.09;100.00;102026.59;5012166;28;20025;-96
2022/07/22 05:20:44;;;;;;;19.98;11.45;;;;;;;15.18;100.00;102033.03;5009483;28;20466;-96
2022/07/22 05:23:13;;;;;;;21.45;12.75;;;;;;;15.17;100.00;102028.69;5010331;28;20032;-96
2022/07/22 05:25:41;;;;;;;19.83;11.55;;;;;;;15.30;100.00;102025.03;5010125;28;20025;-96
2022/07/22 05:28:07;;;;;;;18.00;11.80;;;;;;;15.30;100.00;102025.03;5011206;28;20026;-96
2022/07/22 05:30:33;;;;;;;18.92;11.65;;;;;;;15.35;100.00;102030.81;5011489;28;20414;-96
2022/07/22 05:32:58;;;;;;;23.98;12.13;;;;;;;15.43;100.00;102030.25;5010718;28;20472;-96
2022/07/22 05:35:27;;;;;;;17.92;12.00;;;;;;;15.46;100.00;102030.00;5010533;28;20052;-96
2022/07/22 05:37:52;;;;;;;19.15;11.77;;;;;;;15.60;100.00;102034.28;5010257;28;20022;-95
2022/07/22 05:40:19;;;;;;;19.20;11.85;;;;;;;15.59;100.00;102041.41;5011247;28;20030;-96
2022/07/22 05:42:45;;;;;;;23.40;11.95;;;;;;;15.61;100.00;102031.53;5011898;28;20037;-96
2022/07/22 05:45:21;;;;;;;20.88;12.10;;;;;;;15.71;100.00;102034.34;5012582;28;20404;-96
2022/07/22 05:47:47;;;;;;;14.77;11.35;;;;;;;15.84;100.00;102034.22;5012041;28;20034;-96
2022/07/22 05:50:22;;;;;;;19.00;11.80;;;;;;;15.87;100.00;102041.94;5011030;28;20427;-96
2022/07/22 05:52:58;;;;;;;20.38;11.13;;;;;;;15.85;100.00;102036.75;5012570;28;20395;-96
2022/07/22 05:55:24;;;;;;;19.13;11.73;;;;;;;16.03;100.00;102037.16;5013593;28;20026;-96
2022/07/22 05:57:49;;;;;;;19.25;10.68;;;;;;;16.10;100.00;102043.69;5014590;28;20026;-96
2022/07/22 06:00:24;;;;;;;21.70;11.13;;;;;;;16.23;100.00;102035.59;5011529;28;20030;-96
2022/07/22 06:02:52;;;;;;;20.45;10.40;;;;;;;16.24;100.00;102032.81;5016656;28;20045;-96
2022/07/22 06:05:23;;;;;;;23.90;10.68;;;;;;;16.33;100.00;102041.00;5015925;28;20391;-96
2022/07/22 06:07:49;;;;;;;19.10;9.73;;;;;;;16.41;100.00;102036.81;5019336;28;20025;-96
2022/07/22 06:10:22;;;;;;;19.98;9.52;;;;;;;16.55;99.21;102041.00;5016764;28;20025;-96
2022/07/22 06:12:54;;;;;;;14.55;9.02;;;;;;;16.64;98.71;102044.72;5016188;28;20026;-96
2022/07/22 06:15:23;;;;;;;;;;;;;;;16.83;100.00;102040.50;5018740;28;20032;-96
2022/07/22 06:17:52;;;;;;;16.08;8.82;;;;;;;16.82;97.14;102038.81;5019518;28;19909;-96
2022/07/22 06:20:20;;;;;;;16.10;8.30;;;;;;;16.91;96.92;102038.06;5016976;28;20046;-96
2022/07/22 06:22:52;;;;;;;16.20;8.50;;;;;;;16.87;95.84;102035.78;5020285;28;20026;-96
2022/07/22 06:25:39;;;;;;;16.33;8.23;;;;;;;16.97;94.98;102038.53;5020090;28;20033;-96
2022/07/22 06:28:13;;;;;;;14.20;6.90;;;;;;;16.99;93.27;102028.59;5056099;28;20022;-96
2022/07/22 06:30:40;;;;;;;10.98;7.10;;;;;;;17.05;91.74;102028.09;5022992;28;20028;-96
2022/07/22 06:33:09;;;;;;;16.02;7.57;;;;;;;17.17;93.05;102035.91;5027337;28;20018;-96
2022/07/22 06:35:41;;;;;;;10.85;4.95;;;;;;;17.29;89.45;102035.88;5023046;28;20030;-96
2022/07/22 06:38:11;;;;;;;11.95;5.32;;;;;;;17.42;87.77;102037.38;5026679;28;20029;-96
2022/07/22 06:40:39;;;;;;;11.00;5.47;;;;;;;17.40;88.31;102034.00;5056311;28;20042;-96
2022/07/22 06:43:05;;;;;;;11.10;6.10;;;;;;;17.45;87.71;102030.94;5020072;28;20044;-96
2022/07/22 06:45:31;;;;;;;12.13;5.43;;;;;;;17.29;82.71;102023.41;5013397;28;20033;-96
2022/07/22 06:48:00;;;;;;;11.18;5.90;;;;;;;17.34;87.42;102023.88;5045867;28;20224;-96
2022/07/22 06:50:33;;;;;;;11.30;4.68;;;;;;;17.22;84.80;102032.88;5014090;28;20147;-96
2022/07/22 06:53:04;;;;;;;12.20;5.32;;;;;;;17.28;86.72;102040.34;5016384;28;20452;-96
2022/07/22 06:55:30;;;;;;;12.43;5.68;;;;;;;17.27;87.05;102038.66;5017370;28;20025;-96
2022/07/22 06:57:55;;;;;;;7.95;3.40;;;;;;;17.32;80.19;102039.13;5013968;28;20044;-96
2022/07/22 07:00:21;;;;;;;7.68;3.90;;;;;;;17.40;83.54;102043.78;5016368;28;20174;-96
2022/07/22 07:02:59;;;;;;;9.50;4.18;;;;;;;17.37;82.14;102039.56;5051404;28;20033;-96
2022/07/22 07:05:28;;;;;;;8.73;3.42;;;;;;;17.32;80.64;102028.47;5015237;28;20395;-96
2022/07/22 07:07:57;;;;;;;9.75;3.47;;;;;;;17.38;81.26;102032.44;5049339;28;20048;-96
2022/07/22 07:10:23;;;;;;;6.53;2.67;;;;;;;17.32;77.41;102036.47;5015720;28;20064;-96
2022/07/22 07:12:48;;;;;;;10.05;4.22;;;;;;;17.50;81.05;102026.91;5047722;28;20053;-96
2022/07/22 07:15:20;;;;;;;7.50;3.08;;;;;;;17.73;79.51;102021.50;5016049;28;20117;-96
2022/07/22 07:17:45;;;;;;;4.63;1.90;;;;;;;17.97;75.08;102026.53;5049665;28;20025;-96
2022/07/22 07:20:13;;;;;;;5.05;2.10;;;;;;;17.98;75.11;102018.41;5047920;28;20053;-96
2022/07/22 07:22:39;;;;;;;2.92;2.00;;;;;;;17.85;74.65;102012.47;5020939;28;20037;-96
2022/07/22 07:25:08;;;;;;;6.72;2.50;;;;;;;17.73;75.40;102017.03;5051619;28;20038;-96
2022/07/22 07:27:37;;;;;;;7.97;3.22;;;;;;;17.65;77.26;102010.66;5017009;28;20022;-96
2022/07/22 07:30:12;;;;;;;5.68;2.60;;;;;;;17.54;73.33;102019.53;5015368;28;20030;-96
2022/07/22 07:32:44;;;;;;;9.32;3.20;;;;;;;17.55;75.10;102015.88;5014723;28;20022;-96
2022/07/22 07:35:13;;;;;;;5.50;2.47;;;;;;;17.54;78.05;102031.00;5018244;28;20037;-96
2022/07/22 07:37:46;;;;;;;8.65;2.50;;;;;;;17.55;76.74;102024.72;5016777;28;20032;-96
2022/07/22 07:40:12;;;;;;;6.55;2.35;;;;;;;17.62;80.45;102022.41;5025927;28;20041;-96
2022/07/22 07:42:41;;;;;;;5.00;2.25;;;;;;;17.69;81.27;102020.94;5029444;28;20050;-96
2022/07/22 07:45:11;;;;;;;7.05;2.50;;;;;;;17.74;80.43;102021.38;5023189;28;20033;-96
2022/07/22 07:47:43;;;;;;;5.40;2.65;;;;;;;17.83;77.44;102011.75;5029600;28;20024;-96
2022/07/22 07:50:26;;;;;;;6.13;2.50;;;;;;;17.94;76.92;102011.66;5022227;28;20033;-96
2022/07/22 07:52:58;;;;;;;5.65;2.15;;;;;;;17.98;77.89;102023.72;5020224;28;20026;-96
2022/07/22 07:55:30;;;;;;;7.00;2.72;;;;;;;17.93;78.01;102025.09;5019850;28;20033;-96
2022/07/22 07:57:58;;;;;;;5.07;2.95;;;;;;;17.96;78.10;102025.69;5019472;28;20030;-96
2022/07/22 08:00:28;;;;;;;5.63;2.25;;;;;;;18.00;75.92;102020.94;5019305;28;20076;-96
2022/07/22 08:02:55;;;;;;;7.50;1.98;;;;;;;18.29;75.90;102016.56;5017795;28;20415;-96
2022/07/22 08:05:21;;;;;;;6.65;2.38;;;;;;;18.74;74.30;102008.16;5020183;28;20057;-96
2022/07/22 08:07:56;;;;;;;4.90;2.42;;;;;;;19.18;68.64;102017.47;5020708;28;20421;-96
2022/07/22 08:10:36;;;;;;;8.80;2.50;;;;;;;19.46;69.13;102006.91;5027870;28;20022;-96
2022/07/22 08:13:10;;;;;;;7.38;2.40;;;;;;;19.67;68.12;102010.28;5030122;28;20057;-96
2022/07/22 08:15:36;;;;;;;11.93;2.92;;;;;;;19.67;66.43;102000.44;5022425;28;20041;-96
2022/07/22 08:18:17;;;;;;;5.63;2.20;;;;;;;19.84;67.54;102003.34;5024645;28;20034;-96
2022/07/22 08:20:47;;;;;;;5.00;2.10;;;;;;;19.88;65.62;102008.25;5026980;28;20057;-96
2022/07/22 08:23:28;;;;;;;3.88;1.55;;;;;;;20.33;62.60;102011.00;5025170;28;20026;-96
2022/07/22 08:26:16;;;;;;;5.85;1.90;;;;;;;20.43;60.57;102004.81;5023316;28;20510;-96
2022/07/22 08:28:51;;;;;;;4.53;2.03;;;;;;;20.75;58.81;102002.47;5026464;28;20037;-96
2022/07/22 08:31:45;;;;;;;4.03;1.30;;;;;;;21.20;64.61;102010.44;5030650;28;20013;-96
2022/07/22 08:34:16;;;;;;;5.97;1.73;;;;;;;21.54;61.73;102001.69;5026765;28;20101;-96
2022/07/22 08:36:53;;;;;;;5.13;1.50;;;;;;;21.89;58.59;102000.75;5030820;28;20064;-96
2022/07/22 08:39:29;;;;;;;4.32;1.45;;;;;;;21.96;56.80;101987.53;5033512;28;20041;-96
2022/07/22 08:42:07;;;;;;;2.53;1.50;;;;;;;22.19;57.62;101988.69;5033525;28;20038;-96
2022/07/22 08:44:55;;;;;;;6.85;1.75;;;;;;;21.79;58.42;101987.47;5031164;28;20022;-96
2022/07/22 08:47:52;;;;;;;4.65;1.65;;;;;;;21.22;59.40;101987.06;5028999;28;20445;-96
2022/07/22 08:53:56;;;;;;;4.80;1.90;;;;;;;20.86;63.00;101988.91;5033394;28;20061;-96
2022/07/22 08:56:32;;;;;;;6.45;2.20;;;;;;;20.50;61.57;101982.69;5052453;28;20064;-96
2022/07/22 08:59:29;;;;;;;4.05;1.92;;;;;;;20.50;62.60;101992.53;5052179;28;20576;-96
2022/07/22 09:02:17;;;;;;;3.63;1.50;;;;;;;20.21;61.73;101989.97;5034500;28;20034;-96
2022/07/22 09:05:13;;;;;;;4.57;1.70;;;;;;;20.06;62.28;101994.13;5030808;28;20084;-96
2022/07/22 09:07:48;;;;;;;4.63;1.50;;;;;;;19.84;63.50;101990.84;5036600;28;20033;-96
2022/07/22 09:10:43;;;;;;;5.05;1.70;;;;;;;19.83;64.01;101994.50;5034890;28;20109;-96
2022/07/22 09:13:14;;;;;;;5.72;2.13;;;;;;;19.81;62.62;101993.78;5036408;28;20032;-96
2022/07/22 09:15:57;;;;;;;5.78;1.90;;;;;;;19.74;62.61;101992.69;5032973;28;20052;-96
2022/07/22 09:18:50;;;;;;;5.50;2.20;;;;;;;19.82;64.34;101995.47;5032622;28;20031;-96
2022/07/22 09:21:31;;;;;;;6.28;3.28;;;;;;;19.76;64.70;101984.53;5036048;28;20037;-96
2022/07/22 09:24:17;;;;;;;4.88;2.03;;;;;;;19.71;63.97;101984.97;5032161;28;20036;-96
2022/07/22 09:27:07;;;;;;;6.18;2.85;;;;;;;19.86;63.77;101978.16;5044293;28;20033;-96
2022/07/22 09:29:59;;;;;;;5.07;2.28;;;;;;;19.97;62.47;101980.66;5030846;28;20026;-96
2022/07/22 09:32:54;;;;;;;5.43;2.20;;;;;;;19.93;61.06;101981.09;5015124;28;20029;-96
2022/07/22 09:35:26;;;;;;;4.47;2.60;;;;;;;19.89;60.05;101982.38;5033179;28;20450;-96
2022/07/22 09:38:18;;;;;;;4.25;2.05;;;;;;;19.95;60.90;101973.78;5035307;28;20089;-96
2022/07/22 09:41:44;;;;;;;3.60;2.00;;;;;;;20.17;60.74;101970.72;5033702;28;20026;-96
2022/07/22 09:44:48;;;;;;;6.57;2.28;;;;;;;20.64;60.40;101962.59;5033834;28;20016;-96
2022/07/22 09:47:45;;;;;;;6.00;2.30;;;;;;;21.19;59.66;101963.25;5032450;28;20029;-96
2022/07/22 09:50:40;;;;;;;5.43;2.33;;;;;;;21.61;57.91;101951.84;5032046;28;20093;-96
2022/07/22 09:53:13;;;;;;;6.53;2.72;;;;;;;21.86;57.08;101958.19;5032660;28;20014;-96
2022/07/22 09:55:39;;;;;;;5.65;3.30;;;;;;;21.90;54.02;101963.06;5049286;22;20061;-79
2022/07/22 09:58:07;;;;;;;6.97;2.47;;;;;;;22.20;54.92;101963.56;5053702;28;20033;-80
2022/07/22 10:00:34;;;;;;;5.70;2.30;;;;;;;22.29;54.75;101957.22;5052317;28;20107;-81
2022/07/22 10:03:01;;;;;;;4.00;2.30;;;;;;;22.37;53.74;101965.28;5053676;28;20033;-81
2022/07/22 10:05:34;;;;;;;6.38;2.50;;;;;;;22.08;54.91;101959.50;5034775;28;20020;-82
2022/07/22 10:08:01;;;;;;;;;;;;;;;22.33;57.50;101963.94;5053035;28;20074;-81
2022/07/22 10:10:28;;;;;;;8.35;2.30;;;;;;;21.92;56.25;101973.63;5067848;28;19908;-82
2022/07/22 10:12:56;;;;;;;5.20;3.17;;;;;;;21.93;56.47;101971.78;5053218;28;20047;-79
2022/07/22 10:15:22;;;;;;;5.65;2.40;;;;;;;21.87;57.07;101973.28;5051881;28;20027;-79
2022/07/22 10:17:54;;;;;;;4.32;2.15;;;;;;;21.85;58.20;101965.38;5052919;28;20025;-79
2022/07/22 10:20:22;;;;;;;7.03;2.70;;;;;;;21.77;54.48;101967.19;5052301;28;20025;-78
2022/07/22 10:22:52;;;;;;;4.78;2.40;;;;;;;21.99;54.87;101965.78;5052297;28;20086;-79
2022/07/22 10:25:20;;;;;;;5.90;2.45;;;;;;;21.83;54.63;101967.41;5052364;28;20048;-79
2022/07/22 10:27:46;;;;;;;5.18;2.60;;;;;;;21.59;57.64;101968.06;5035909;28;20017;-79
2022/07/22 10:30:23;;;;;;;5.07;2.83;;;;;;;21.67;57.16;101972.69;5052371;28;20080;-79
2022/07/22 10:33:09;;;;;;;8.07;3.00;;;;;;;22.19;57.78;101967.25;5034421;28;20029;-80
2022/07/22 10:35:37;;;;;;;8.02;3.03;;;;;;;22.75;55.30;101960.34;5051651;28;20108;-80
2022/07/22 10:38:05;;;;;;;7.35;2.92;;;;;;;22.92;54.52;101970.13;5052666;28;20482;-79
2022/07/22 10:40:46;;;;;;;5.30;2.78;;;;;;;22.89;53.09;101970.47;5052261;28;20033;-79
2022/07/22 10:43:13;;;;;;;5.43;3.00;;;;;;;22.87;52.09;101972.47;5033861;28;20032;-80
2022/07/22 10:45:50;;;;;;;7.05;3.78;;;;;;;22.63;52.55;101959.00;5034469;28;20068;-79
2022/07/22 10:48:39;;;;;;;5.95;3.00;;;;;;;22.46;54.11;101953.59;5033575;28;20083;-79
2022/07/22 10:51:11;;;;;;;5.95;2.80;;;;;;;22.01;54.83;101959.25;5041019;28;20033;-79
2022/07/22 10:53:59;;;;;;;6.40;2.63;;;;;;;22.16;56.85;101948.81;5051730;28;20029;-79
2022/07/22 10:56:26;;;;;;;6.60;3.35;;;;;;;21.97;56.91;101941.81;5032696;28;20036;-79
2022/07/22 10:58:54;;;;;;;6.05;3.25;;;;;;;21.87;54.16;101955.34;5034695;28;20029;-79
2022/07/22 11:01:23;;;;;;;6.22;3.15;;;;;;;21.76;55.41;101952.13;5051935;28;20128;-81
2022/07/22 11:03:50;;;;;;;6.60;3.10;;;;;;;21.76;54.47;101944.91;5033644;28;20082;-80
2022/07/22 11:06:16;;;;;;;5.22;3.78;;;;;;;21.83;54.35;101937.91;5051802;28;20485;-80
2022/07/22 11:08:42;;;;;;;6.97;3.50;;;;;;;21.60;53.20;101944.81;5035597;28;20124;-80
2022/07/22 11:11:08;;;;;;;7.57;3.58;;;;;;;21.79;55.80;101947.28;5052168;28;20021;-80
2022/07/22 11:13:38;;;;;;;8.48;3.47;;;;;;;21.83;56.44;101945.97;5034305;28;20393;-80
2022/07/22 11:16:24;;;;;;;5.65;3.17;;;;;;;22.16;56.79;101940.78;5034442;28;20021;-80
2022/07/22 11:18:55;;;;;;;5.20;3.35;;;;;;;22.18;55.32;101938.75;5051311;28;20108;-79
2022/07/22 11:21:23;;;;;;;7.95;3.60;;;;;;;22.36;53.87;101941.31;5051299;28;20028;-79
2022/07/22 11:23:50;;;;;;;12.05;4.50;;;;;;;22.37;53.22;101927.75;5032183;28;20029;-79
2022/07/22 11:26:23;;;;;;;6.80;3.80;;;;;;;22.78;53.81;101923.28;5030950;28;20095;-78
2022/07/22 11:28:48;;;;;;;;;;;;;;;23.15;56.42;101932.69;5049588;28;20066;-78
2022/07/22 11:31:18;;;;;;;6.60;4.00;;;;;;;23.21;49.77;101931.19;5051244;28;20011;-79
2022/07/22 11:33:47;;;;;;;6.10;4.28;;;;;;;23.59;49.12;101930.47;5033924;28;20036;-79
2022/07/22 11:36:12;;;;;;;6.88;3.88;;;;;;;23.79;50.33;101916.66;5033707;28;20063;-79
2022/07/22 11:38:49;;;;;;;6.07;4.63;;;;;;;23.71;48.30;101912.97;5050848;28;20055;-79